Time;durP1;ratioP1;P1;durP2;ratioP2;P2;SDS_P1;SDS_P2;PMS_P1;PMS_P2;Temp;Humidity;BMP_temperature;BMP_pressure;BME280_temperature;BME280_humidity;BME280_pressure;Samples;Min_cycle;Max_cycle;Signal;HPM_P1;HPM_P2
2022/09/11 00:00:29;;;;;;;2.27;1.90;;;13.70;99.90;;;;;;5079634;28;20191;-44
2022/09/11 00:02:54;;;;;;;3.93;2.23;;;13.80;99.90;;;;;;5079232;28;20420;-44
2022/09/11 00:05:20;;;;;;;2.13;1.93;;;13.80;99.90;;;;;;5078075;28;20508;-47
2022/09/11 00:07:46;;;;;;;2.90;2.00;;;13.80;99.90;;;;;;5075846;28;20181;-45
2022/09/11 00:10:12;;;;;;;3.50;2.20;;;13.90;99.90;;;;;;5077333;28;20182;-44
2022/09/11 00:12:38;;;;;;;2.03;1.83;;;13.90;99.90;;;;;;5078001;28;20465;-45
2022/09/11 00:15:04;;;;;;;3.03;1.77;;;13.90;99.90;;;;;;5076475;28;20254;-45
2022/09/11 00:17:29;;;;;;;5.70;2.33;;;13.90;99.90;;;;;;5076991;28;20189;-45
2022/09/11 00:19:55;;;;;;;2.17;1.77;;;13.80;99.90;;;;;;5076460;28;20433;-44
2022/09/11 00:22:20;;;;;;;2.30;1.70;;;13.90;99.90;;;;;;5076322;28;20270;-45
2022/09/11 00:24:46;;;;;;;3.23;1.80;;;13.90;99.90;;;;;;5077056;28;20182;-43
2022/09/11 00:27:11;;;;;;;2.77;1.97;;;13.80;99.90;;;;;;5077500;28;20212;-44
2022/09/11 00:29:37;;;;;;;2.90;2.20;;;13.80;99.90;;;;;;5078135;28;20277;-46
2022/09/11 00:32:03;;;;;;;2.30;2.00;;;13.80;99.90;;;;;;5076813;28;20195;-43
2022/09/11 00:34:28;;;;;;;2.30;1.80;;;13.80;99.90;;;;;;5078307;28;20336;-44
2022/09/11 00:36:54;;;;;;;2.53;1.97;;;13.80;99.90;;;;;;5077682;28;20681;-44
2022/09/11 00:39:20;;;;;;;2.87;2.10;;;13.80;99.90;;;;;;5076198;28;20374;-45
2022/09/11 00:41:46;;;;;;;5.27;2.23;;;13.90;99.90;;;;;;5075910;28;20255;-43
2022/09/11 00:44:15;;;;;;;2.60;1.87;;;13.90;99.90;;;;;;5076572;28;20230;-46
2022/09/11 00:46:45;;;;;;;3.33;2.50;;;13.80;99.90;;;;;;5076519;28;20460;-46
2022/09/11 00:49:29;;;;;;;5.40;1.90;;;13.80;99.90;;;;;;5076665;28;20436;-48
2022/09/11 00:52:32;;;;;;;2.13;1.90;;;13.80;99.90;;;;;;5077687;28;20443;-45
2022/09/11 00:55:03;;;;;;;2.73;2.10;;;13.90;99.90;;;;;;5018294;28;20447;-44
2022/09/11 00:57:32;;;;;;;4.70;2.30;;;13.80;99.90;;;;;;5066728;28;20424;-45
2022/09/11 01:00:00;;;;;;;2.90;2.13;;;13.80;99.90;;;;;;5078591;28;20427;-43
2022/09/11 01:02:27;;;;;;;2.87;2.00;;;13.80;99.90;;;;;;5078985;28;20474;-45
2022/09/11 01:04:54;;;;;;;3.50;2.33;;;13.80;99.90;;;;;;5077661;28;21066;-48
2022/09/11 01:07:20;;;;;;;3.73;2.30;;;13.80;99.90;;;;;;5077975;28;20512;-48
2022/09/11 01:09:46;;;;;;;5.60;2.37;;;13.80;99.90;;;;;;5077952;28;20432;-44
2022/09/11 01:12:35;;;;;;;4.50;2.30;;;13.80;99.90;;;;;;5077034;28;20479;-44
2022/09/11 01:15:08;;;;;;;2.70;2.43;;;13.80;99.90;;;;;;5076000;28;20421;-45
2022/09/11 01:18:00;;;;;;;3.07;2.40;;;13.80;99.90;;;;;;5076776;28;20429;-43
2022/09/11 01:20:59;;;;;;;5.37;2.70;;;13.80;99.90;;;;;;5076143;28;20702;-44
2022/09/11 01:23:59;;;;;;;3.30;2.50;;;13.80;99.90;;;;;;5076238;28;20408;-45
2022/09/11 01:26:49;;;;;;;3.60;2.90;;;13.80;99.90;;;;;;5023611;28;20413;-44
2022/09/11 01:29:18;;;;;;;2.60;2.40;;;13.80;99.90;;;;;;5074385;28;20482;-45
2022/09/11 01:31:58;;;;;;;3.50;2.30;;;13.80;99.90;;;;;;5074473;28;20400;-44
2022/09/11 01:34:54;;;;;;;4.40;2.00;;;13.80;99.90;;;;;;5074276;28;20481;-43
2022/09/11 01:37:36;;;;;;;3.40;2.33;;;13.80;99.90;;;;;;5076787;28;20475;-44
2022/09/11 01:40:11;;;;;;;2.50;2.30;;;13.80;99.90;;;;;;5077543;28;20493;-46
2022/09/11 01:42:41;;;;;;;4.97;2.87;;;13.70;99.90;;;;;;5076674;28;20491;-45
2022/09/11 01:45:07;;;;;;;4.70;2.50;;;13.70;99.90;;;;;;5078567;28;20527;-46
2022/09/11 01:47:34;;;;;;;2.60;2.40;;;13.80;99.90;;;;;;5076701;28;20408;-44
2022/09/11 01:50:03;;;;;;;4.03;2.67;;;13.80;99.90;;;;;;5077036;28;20472;-46
2022/09/11 01:52:38;;;;;;;3.47;2.77;;;13.80;99.90;;;;;;5074538;28;20428;-44
2022/09/11 01:55:13;;;;;;;3.63;2.60;;;13.80;99.90;;;;;;5059205;28;20451;-46
2022/09/11 01:57:41;;;;;;;3.47;2.80;;;13.70;99.90;;;;;;5075049;28;20805;-43
2022/09/11 02:00:10;;;;;;;4.30;2.50;;;13.70;99.90;;;;;;5076292;28;20460;-44
2022/09/11 02:02:38;;;;;;;5.17;2.83;;;13.80;99.90;;;;;;5076788;28;20486;-45
2022/09/11 02:05:21;;;;;;;3.47;2.40;;;13.70;99.90;;;;;;5076209;28;20443;-44
2022/09/11 02:08:12;;;;;;;2.60;2.40;;;13.70;99.90;;;;;;5075662;28;20518;-43
2022/09/11 02:11:02;;;;;;;3.50;2.93;;;13.80;99.90;;;;;;5075541;28;20446;-47
2022/09/11 02:13:38;;;;;;;3.40;2.10;;;13.80;99.90;;;;;;5075303;28;20420;-45
2022/09/11 02:16:38;;;;;;;5.80;2.93;;;13.80;99.90;;;;;;5076797;28;20484;-44
2022/09/11 02:19:06;;;;;;;3.23;2.30;;;13.80;99.90;;;;;;5076489;28;20468;-46
2022/09/11 02:21:32;;;;;;;4.63;3.07;;;13.70;99.90;;;;;;5077673;28;20507;-43
2022/09/11 02:23:59;;;;;;;2.70;2.50;;;13.70;99.90;;;;;;5076551;28;20485;-45
2022/09/11 02:26:26;;;;;;;4.90;3.23;;;13.70;99.90;;;;;;5077407;28;20428;-43
2022/09/11 02:28:52;;;;;;;3.40;2.90;;;13.70;99.90;;;;;;5076759;28;20506;-47
2022/09/11 02:31:19;;;;;;;4.77;2.90;;;13.70;99.90;;;;;;5074535;28;20485;-44
2022/09/11 02:33:45;;;;;;;3.93;3.60;;;13.70;99.90;;;;;;5075972;28;20559;-44
2022/09/11 02:36:37;;;;;;;3.80;2.87;;;13.70;99.90;;;;;;5076221;28;20483;-44
2022/09/11 02:39:38;;;;;;;5.47;3.87;;;13.60;99.90;;;;;;5074829;28;20409;-43
2022/09/11 02:42:41;;;;;;;3.47;3.17;;;13.70;99.90;;;;;;5076141;28;20693;-44
2022/09/11 02:45:20;;;;;;;3.70;3.23;;;13.60;99.90;;;;;;5035212;28;20438;-46
2022/09/11 02:48:03;;;;;;;3.73;3.43;;;13.70;99.90;;;;;;5073446;28;20419;-44
2022/09/11 02:50:35;;;;;;;5.33;3.50;;;13.70;99.90;;;;;;5076326;28;20707;-44
2022/09/11 02:53:09;;;;;;;4.03;3.50;;;13.70;99.90;;;;;;5077608;28;20408;-44
2022/09/11 02:56:04;;;;;;;7.63;4.10;;;13.70;99.90;;;;;;5082671;28;20466;-45
2022/09/11 02:58:35;;;;;;;3.90;3.50;;;13.70;99.90;;;;;;5097908;28;20408;-46
2022/09/11 03:01:01;;;;;;;3.30;2.73;;;13.70;99.90;;;;;;5096848;28;20451;-46
2022/09/11 03:03:27;;;;;;;4.70;3.57;;;13.70;99.90;;;;;;5096568;28;20418;-45
2022/09/11 03:05:53;;;;;;;5.30;3.50;;;13.70;99.90;;;;;;5096604;28;20452;-44
2022/09/11 03:08:19;;;;;;;3.43;3.13;;;13.80;99.90;;;;;;5095990;28;20246;-44
2022/09/11 03:10:45;;;;;;;4.70;3.20;;;13.80;99.90;;;;;;5097174;28;20540;-43
2022/09/11 03:13:13;;;;;;;3.90;3.40;;;13.80;99.90;;;;;;5094071;28;20455;-43
2022/09/11 03:15:38;;;;;;;4.80;3.67;;;13.80;99.90;;;;;;5096104;28;20479;-46
2022/09/11 03:18:04;;;;;;;4.20;3.57;;;13.80;99.90;;;;;;5096533;28;20483;-44
2022/09/11 03:20:30;;;;;;;5.73;3.70;;;13.80;99.90;;;;;;5095922;28;20177;-46
2022/09/11 03:22:55;;;;;;;3.37;3.07;;;13.70;99.90;;;;;;5095356;28;20179;-48
2022/09/11 03:25:27;;;;;;;3.30;3.00;;;13.80;99.90;;;;;;5095360;28;20177;-47
2022/09/11 03:27:53;;;;;;;4.07;3.40;;;13.80;99.90;;;;;;5095576;28;20169;-44
2022/09/11 03:30:19;;;;;;;4.47;3.90;;;13.80;99.90;;;;;;5095727;28;20422;-45
2022/09/11 03:32:45;;;;;;;3.80;3.50;;;13.80;99.90;;;;;;5095781;28;20475;-46
2022/09/11 03:35:11;;;;;;;4.47;3.60;;;13.80;99.90;;;;;;5096089;28;20498;-46
2022/09/11 03:37:36;;;;;;;7.07;4.60;;;13.90;99.90;;;;;;5096732;28;20283;-44
2022/09/11 03:40:03;;;;;;;5.30;4.60;;;13.80;99.90;;;;;;5097451;28;20169;-43
2022/09/11 03:42:29;;;;;;;5.90;3.97;;;13.80;99.90;;;;;;5097109;28;20177;-43
2022/09/11 03:44:54;;;;;;;4.50;3.60;;;13.80;99.90;;;;;;5096723;28;20710;-44
2022/09/11 03:47:21;;;;;;;6.53;3.73;;;13.80;99.90;;;;;;5097601;28;20191;-45
2022/09/11 03:49:47;;;;;;;6.00;3.83;;;13.80;99.90;;;;;;5097704;28;20260;-44
2022/09/11 03:52:13;;;;;;;3.90;3.60;;;13.80;99.90;;;;;;5100433;28;20430;-44
2022/09/11 03:54:38;;;;;;;4.10;3.70;;;13.80;99.90;;;;;;5100126;28;20499;-45
2022/09/11 03:57:05;;;;;;;4.90;4.40;;;13.80;99.90;;;;;;5100267;28;20474;-44
2022/09/11 03:59:31;;;;;;;5.03;4.63;;;13.80;99.90;;;;;;5097816;28;20214;-43
2022/09/11 04:01:57;;;;;;;4.20;3.57;;;13.90;99.90;;;;;;5098530;28;20444;-46
2022/09/11 04:04:23;;;;;;;4.00;3.57;;;13.80;99.90;;;;;;5098463;28;20859;-44
2022/09/11 04:06:48;;;;;;;5.80;3.80;;;13.90;99.90;;;;;;5098944;28;20188;-44
2022/09/11 04:09:14;;;;;;;4.73;4.13;;;13.80;99.90;;;;;;5097840;28;20185;-44
2022/09/11 04:11:39;;;;;;;4.27;3.83;;;13.80;99.90;;;;;;5098767;28;20186;-47
2022/09/11 04:14:06;;;;;;;4.10;3.77;;;13.80;99.90;;;;;;5099897;28;20567;-47
2022/09/11 04:16:32;;;;;;;3.83;3.43;;;13.80;99.90;;;;;;5099291;28;20296;-45
2022/09/11 04:19:01;;;;;;;6.13;4.43;;;13.80;99.90;;;;;;5099123;28;20753;-47
2022/09/11 04:21:27;;;;;;;4.50;4.10;;;13.80;99.90;;;;;;5098969;28;20846;-44
2022/09/11 04:23:58;;;;;;;6.40;4.97;;;13.80;99.90;;;;;;5099491;28;20471;-44
2022/09/11 04:26:26;;;;;;;7.40;4.73;;;13.80;99.90;;;;;;5100189;28;20908;-44
2022/09/11 04:28:51;;;;;;;6.07;4.37;;;13.80;99.90;;;;;;5097484;28;20845;-45
2022/09/11 04:31:18;;;;;;;5.73;4.07;;;13.80;99.90;;;;;;5097824;28;20459;-44
2022/09/11 04:33:44;;;;;;;4.83;4.37;;;13.80;99.90;;;;;;5098196;28;20620;-46
2022/09/11 04:36:12;;;;;;;5.10;4.67;;;13.80;99.90;;;;;;5098518;28;20577;-43
2022/09/11 04:38:40;;;;;;;4.70;4.13;;;13.80;99.90;;;;;;5098740;28;20406;-44
2022/09/11 04:41:06;;;;;;;6.67;4.60;;;13.80;99.90;;;;;;5098409;28;20541;-46
2022/09/11 04:43:33;;;;;;;4.80;4.30;;;13.80;99.90;;;;;;5098366;28;20426;-46
2022/09/11 04:46:01;;;;;;;5.13;4.70;;;13.90;99.90;;;;;;5098436;28;20415;-48
2022/09/11 04:48:27;;;;;;;7.13;4.43;;;13.90;99.90;;;;;;5098765;28;20433;-45
2022/09/11 04:51:05;;;;;;;6.47;5.13;;;13.90;99.90;;;;;;5099011;28;20412;-45
2022/09/11 04:53:32;;;;;;;6.63;5.17;;;13.90;99.90;;;;;;5098831;28;20416;-47
2022/09/11 04:56:06;;;;;;;5.63;5.13;;;13.90;99.90;;;;;;5098594;28;20457;-44
2022/09/11 04:58:32;;;;;;;5.63;5.13;;;13.80;99.90;;;;;;5099341;28;20414;-43
2022/09/11 05:00:58;;;;;;;5.00;4.57;;;13.90;99.90;;;;;;5099170;28;20746;-47
2022/09/11 05:03:24;;;;;;;4.90;4.40;;;13.90;99.90;;;;;;5099273;28;20443;-46
2022/09/11 05:05:50;;;;;;;5.10;4.70;;;13.90;99.90;;;;;;5099750;28;20415;-44
2022/09/11 05:08:17;;;;;;;5.50;5.00;;;13.80;99.90;;;;;;5099507;28;20450;-47
2022/09/11 05:10:43;;;;;;;5.30;4.80;;;13.90;99.90;;;;;;5099082;28;20188;-47
2022/09/11 05:13:10;;;;;;;4.93;4.60;;;13.80;99.90;;;;;;5099003;28;20504;-51
2022/09/11 05:15:36;;;;;;;5.70;5.20;;;13.80;99.90;;;;;;5098444;28;20473;-47
2022/09/11 05:18:02;;;;;;;6.83;4.90;;;13.80;99.90;;;;;;5098062;28;20422;-44
2022/09/11 05:20:29;;;;;;;5.33;4.87;;;13.80;99.90;;;;;;5099188;28;20202;-44
2022/09/11 05:22:55;;;;;;;5.87;5.37;;;13.80;99.90;;;;;;5099599;28;20745;-44
2022/09/11 05:25:21;;;;;;;6.17;5.60;;;13.90;99.90;;;;;;5099116;28;20407;-44
2022/09/11 05:27:47;;;;;;;6.07;5.57;;;13.90;99.90;;;;;;5098966;28;20493;-47
2022/09/11 05:30:13;;;;;;;6.67;6.17;;;13.90;99.90;;;;;;5097909;28;20514;-45
2022/09/11 05:32:38;;;;;;;6.00;5.13;;;13.90;99.90;;;;;;5097838;28;20560;-45
2022/09/11 05:35:06;;;;;;;7.07;6.17;;;13.90;99.90;;;;;;5096714;28;20233;-48
2022/09/11 05:37:31;;;;;;;6.50;5.90;;;13.90;99.90;;;;;;5097122;28;20235;-48
2022/09/11 05:39:58;;;;;;;6.63;6.03;;;13.90;99.90;;;;;;5097408;28;20869;-45
2022/09/11 05:42:23;;;;;;;6.30;5.67;;;13.90;99.90;;;;;;5096750;28;20490;-43
2022/09/11 05:44:49;;;;;;;7.27;6.57;;;13.90;99.90;;;;;;5097122;28;20523;-44
2022/09/11 05:47:15;;;;;;;7.90;5.97;;;14.00;99.90;;;;;;5097090;28;20177;-47
2022/09/11 05:49:40;;;;;;;5.73;5.10;;;14.00;99.90;;;;;;5096083;28;20359;-45
2022/09/11 05:52:06;;;;;;;6.13;5.63;;;14.00;99.90;;;;;;5096162;28;20458;-44
2022/09/11 05:54:31;;;;;;;6.57;5.67;;;14.10;99.90;;;;;;5096434;28;20177;-47
2022/09/11 05:56:57;;;;;;;5.73;5.23;;;14.10;99.90;;;;;;5095430;28;20455;-46
2022/09/11 05:59:23;;;;;;;7.77;6.47;;;14.20;99.90;;;;;;5095094;28;20173;-45
2022/09/11 06:01:49;;;;;;;5.80;5.30;;;14.20;99.90;;;;;;5095796;28;20199;-44
2022/09/11 06:04:17;;;;;;;6.43;5.93;;;14.20;99.90;;;;;;5095681;28;20447;-44
2022/09/11 06:06:42;;;;;;;8.90;6.10;;;14.30;99.90;;;;;;5097035;28;20173;-46
2022/09/11 06:09:08;;;;;;;6.97;6.37;;;14.30;99.90;;;;;;5096840;28;20441;-45
2022/09/11 06:11:34;;;;;;;6.53;5.93;;;14.30;99.90;;;;;;5097310;28;20184;-45
2022/09/11 06:14:00;;;;;;;6.80;6.20;;;14.30;99.90;;;;;;5097105;28;20181;-44
2022/09/11 06:16:30;;;;;;;7.10;6.40;;;14.40;99.90;;;;;;5098132;28;20533;-45
2022/09/11 06:18:56;;;;;;;8.33;7.17;;;14.40;99.90;;;;;;5098332;28;20484;-45
2022/09/11 06:21:23;;;;;;;6.37;5.87;;;14.40;99.90;;;;;;5097631;28;20419;-45
2022/09/11 06:23:51;;;;;;;7.50;6.77;;;14.40;99.90;;;;;;5098010;28;20264;-45
2022/09/11 06:26:20;;;;;;;7.03;6.40;;;14.40;99.90;;;;;;5098093;28;20739;-44
2022/09/11 06:28:46;;;;;;;7.60;6.90;;;14.40;99.90;;;;;;5097686;28;20748;-43
2022/09/11 06:31:15;;;;;;;7.17;6.50;;;14.40;99.90;;;;;;5097826;28;20414;-46
2022/09/11 06:33:41;;;;;;;6.93;6.33;;;14.40;99.90;;;;;;5097063;28;20471;-45
2022/09/11 06:36:09;;;;;;;6.90;6.20;;;14.50;99.90;;;;;;5097202;28;20469;-45
2022/09/11 06:38:37;;;;;;;7.10;6.10;;;14.50;99.90;;;;;;5097411;28;20173;-47
2022/09/11 06:41:04;;;;;;;7.63;6.93;;;14.50;99.90;;;;;;5097430;28;20417;-45
2022/09/11 06:43:30;;;;;;;9.23;7.27;;;14.60;99.90;;;;;;5097505;28;20422;-45
2022/09/11 06:46:03;;;;;;;8.17;7.20;;;14.60;99.90;;;;;;5096914;28;20572;-43
2022/09/11 06:48:29;;;;;;;7.73;7.03;;;14.70;99.90;;;;;;5097402;28;20721;-46
2022/09/11 06:50:56;;;;;;;8.30;7.60;;;14.70;99.90;;;;;;5097566;28;20461;-45
2022/09/11 06:53:22;;;;;;;7.37;6.77;;;14.80;99.90;;;;;;5095599;28;20349;-44
2022/09/11 06:55:47;;;;;;;7.43;6.83;;;14.80;99.90;;;;;;5094214;28;20570;-45
2022/09/11 06:58:13;;;;;;;8.27;7.57;;;14.90;99.90;;;;;;5094987;28;20850;-45
2022/09/11 07:00:39;;;;;;;10.27;9.27;;;15.00;99.90;;;;;;5095999;28;20174;-45
2022/09/11 07:03:06;;;;;;;9.37;8.40;;;15.00;99.90;;;;;;5093963;28;20218;-45
2022/09/11 07:05:32;;;;;;;9.80;8.90;;;15.10;99.90;;;;;;5095047;28;20439;-43
2022/09/11 07:07:58;;;;;;;8.90;8.10;;;15.20;99.90;;;;;;5095797;28;20430;-44
2022/09/11 07:10:24;;;;;;;11.10;10.00;;;15.30;99.90;;;;;;5094916;28;20411;-44
2022/09/11 07:12:53;;;;;;;10.67;9.67;;;15.40;99.90;;;;;;5093830;28;20261;-43
2022/09/11 07:15:18;;;;;;;9.03;8.30;;;15.50;99.90;;;;;;5094961;28;20599;-45
2022/09/11 07:17:44;;;;;;;8.67;7.97;;;15.60;99.90;;;;;;5094354;28;20825;-45
2022/09/11 07:20:10;;;;;;;9.57;8.73;;;15.70;99.90;;;;;;5094054;28;20181;-44
2022/09/11 07:22:35;;;;;;;11.17;9.70;;;15.70;99.90;;;;;;5093531;28;20194;-44
2022/09/11 07:25:03;;;;;;;10.67;9.70;;;15.80;99.90;;;;;;5094500;28;20684;-43
2022/09/11 07:27:30;;;;;;;10.97;9.87;;;15.90;99.90;;;;;;5094524;28;20202;-45
2022/09/11 07:29:56;;;;;;;10.40;9.50;;;15.90;99.90;;;;;;5095832;28;20720;-47
2022/09/11 07:32:21;;;;;;;9.80;8.90;;;16.00;99.90;;;;;;5096618;28;20671;-44
2022/09/11 07:34:48;;;;;;;12.37;11.30;;;16.00;99.90;;;;;;5097280;28;20488;-44
2022/09/11 07:37:13;;;;;;;10.00;9.10;;;15.90;99.90;;;;;;5096227;28;20239;-45
2022/09/11 07:39:39;;;;;;;10.80;9.90;;;15.90;99.90;;;;;;5095465;28;20822;-44
2022/09/11 07:42:08;;;;;;;10.43;9.60;;;15.80;99.90;;;;;;5095325;28;20173;-43
2022/09/11 07:44:34;;;;;;;11.63;10.53;;;15.80;99.90;;;;;;5096998;28;20205;-44
2022/09/11 07:46:59;;;;;;;10.87;9.87;;;15.80;99.90;;;;;;5096488;28;20497;-45
2022/09/11 07:49:26;;;;;;;10.90;9.80;;;15.80;99.90;;;;;;5100010;28;20837;-45
2022/09/11 07:51:53;;;;;;;11.77;10.70;;;15.90;99.90;;;;;;5100259;28;20181;-45
2022/09/11 07:54:18;;;;;;;11.90;10.90;;;15.90;99.90;;;;;;5099658;28;20439;-45
2022/09/11 07:56:45;;;;;;;12.87;10.93;;;15.90;99.90;;;;;;5098563;28;20940;-46
2022/09/11 07:59:10;;;;;;;11.23;10.27;;;15.90;99.90;;;;;;5099372;28;20438;-45
2022/09/11 08:01:36;;;;;;;11.97;10.87;;;15.90;99.90;;;;;;5097926;28;20411;-44
2022/09/11 08:04:04;;;;;;;11.50;10.30;;;16.00;99.90;;;;;;5098283;28;20333;-46
2022/09/11 08:06:32;;;;;;;11.10;10.00;;;16.10;99.90;;;;;;5098473;28;20181;-50
2022/09/11 08:09:06;;;;;;;11.63;10.60;;;16.10;99.90;;;;;;5097881;28;20524;-52
2022/09/11 08:11:36;;;;;;;10.80;9.83;;;16.20;99.90;;;;;;5080958;28;20431;-54
2022/09/11 08:14:02;;;;;;;10.80;9.67;;;16.30;99.90;;;;;;5098325;28;20415;-54
2022/09/11 08:16:28;;;;;;;10.77;9.87;;;16.30;99.90;;;;;;5097193;28;20481;-52
2022/09/11 08:18:54;;;;;;;11.30;10.23;;;16.60;99.90;;;;;;5099616;28;20442;-46
2022/09/11 08:21:21;;;;;;;10.97;10.03;;;16.80;99.90;;;;;;5097765;28;20689;-44
2022/09/11 08:23:47;;;;;;;11.57;10.47;;;16.70;99.90;;;;;;5098174;28;20555;-44
2022/09/11 08:26:21;;;;;;;10.07;9.17;;;16.70;99.90;;;;;;5096365;28;20604;-46
2022/09/11 08:28:49;;;;;;;12.23;11.00;;;16.70;99.90;;;;;;5098188;28;20412;-46
2022/09/11 08:31:16;;;;;;;11.77;10.80;;;16.80;99.90;;;;;;5095210;28;20539;-45
2022/09/11 08:33:41;;;;;;;11.03;10.13;;;16.90;99.90;;;;;;5097549;28;20479;-44
2022/09/11 08:36:08;;;;;;;11.00;10.07;;;17.10;99.90;;;;;;5097415;28;20485;-46
2022/09/11 08:38:35;;;;;;;9.30;8.40;;;17.20;99.90;;;;;;5097516;28;20443;-45
2022/09/11 08:41:22;;;;;;;10.97;9.97;;;17.40;99.90;;;;;;5098402;28;20457;-46
2022/09/11 08:43:52;;;;;;;11.77;10.77;;;17.50;99.90;;;;;;5099015;28;20848;-47
2022/09/11 08:46:19;;;;;;;10.00;9.13;;;17.60;99.90;;;;;;5099197;28;20502;-46
2022/09/11 08:49:09;;;;;;;12.20;11.00;;;17.70;99.90;;;;;;5097429;28;21006;-45
2022/09/11 08:51:35;;;;;;;11.40;10.30;;;17.70;99.90;;;;;;5096234;28;20817;-45
2022/09/11 08:54:02;;;;;;;11.67;10.67;;;17.50;99.90;;;;;;5097332;28;20411;-44
2022/09/11 08:56:30;;;;;;;12.40;11.27;;;17.70;99.90;;;;;;5097207;28;20817;-45
2022/09/11 08:59:20;;;;;;;12.40;11.20;;;17.60;99.80;;;;;;5097534;28;20471;-45
2022/09/11 09:01:51;;;;;;;11.90;10.90;;;17.50;99.90;;;;;;5098145;28;20476;-45
2022/09/11 09:04:40;;;;;;;12.47;11.20;;;17.50;99.90;;;;;;5097162;28;20430;-44
2022/09/11 09:07:28;;;;;;;12.67;11.60;;;17.60;99.60;;;;;;5096033;28;20414;-44
2022/09/11 09:10:07;;;;;;;10.97;9.87;;;17.60;99.10;;;;;;5097056;28;20428;-47
2022/09/11 09:12:49;;;;;;;10.57;9.63;;;18.20;99.60;;;;;;5094949;28;20431;-46
2022/09/11 09:15:45;;;;;;;10.90;9.90;;;18.70;98.20;;;;;;5094919;28;20451;-46
2022/09/11 09:18:21;;;;;;;9.43;8.60;;;19.20;97.00;;;;;;5095083;28;20424;-48
2022/09/11 09:21:02;;;;;;;10.50;9.63;;;19.50;96.40;;;;;;5078282;28;20761;-46
2022/09/11 09:23:33;;;;;;;9.93;9.03;;;19.70;95.70;;;;;;5095704;28;20834;-45
2022/09/11 09:26:00;;;;;;;9.50;8.60;;;20.10;94.90;;;;;;5097003;28;20838;-45
2022/09/11 09:28:37;;;;;;;9.17;8.47;;;20.30;94.90;;;;;;5097007;28;20428;-47
2022/09/11 09:31:06;;;;;;;11.20;10.27;;;20.20;94.40;;;;;;5095966;28;20433;-45
2022/09/11 09:33:57;;;;;;;9.47;8.57;;;20.10;93.80;;;;;;5096265;28;20473;-45
2022/09/11 09:36:30;;;;;;;10.37;9.50;;;19.70;94.30;;;;;;5080444;28;20555;-45
2022/09/11 09:38:57;;;;;;;9.60;8.80;;;19.50;95.40;;;;;;5095110;28;20450;-47
2022/09/11 09:41:44;;;;;;;9.90;9.00;;;19.50;94.70;;;;;;5094716;28;20403;-47
2022/09/11 09:44:28;;;;;;;11.40;10.40;;;19.10;94.70;;;;;;5093272;28;20439;-44
2022/09/11 09:46:54;;;;;;;8.97;8.30;;;19.20;95.20;;;;;;5094374;28;20408;-48
2022/09/11 09:49:32;;;;;;;8.27;7.57;;;19.20;95.50;;;;;;5095379;28;20461;-45
2022/09/11 09:52:02;;;;;;;9.40;8.70;;;19.40;96.10;;;;;;5093355;28;20414;-45
2022/09/11 09:54:30;;;;;;;9.93;9.13;;;19.70;95.70;;;;;;5096971;28;20854;-45
2022/09/11 09:57:00;;;;;;;11.73;10.73;;;20.00;94.90;;;;;;5095656;28;20563;-44
2022/09/11 09:59:42;;;;;;;10.10;9.30;;;19.60;94.40;;;;;;5094091;28;20455;-45
2022/09/11 10:02:07;;;;;;;9.20;8.40;;;19.70;94.20;;;;;;5093270;28;20498;-46
2022/09/11 10:04:33;;;;;;;9.03;8.23;;;19.50;94.30;;;;;;5094593;28;20419;-45
2022/09/11 10:07:09;;;;;;;8.40;7.70;;;19.80;95.30;;;;;;5095670;28;20209;-44
2022/09/11 10:09:35;;;;;;;8.77;8.03;;;20.20;93.70;;;;;;5095278;28;20556;-50
2022/09/11 10:12:06;;;;;;;8.87;8.17;;;20.80;92.60;;;;;;5094195;28;20429;-46
2022/09/11 10:14:53;;;;;;;9.30;8.50;;;21.00;91.10;;;;;;5094778;28;20563;-47
2022/09/11 10:17:20;;;;;;;7.70;7.00;;;20.90;90.00;;;;;;5093039;28;20542;-46
2022/09/11 10:19:46;;;;;;;7.53;6.93;;;21.60;90.40;;;;;;5092821;28;20459;-47
2022/09/11 10:22:24;;;;;;;8.43;7.80;;;22.00;86.20;;;;;;5094347;28;20561;-46
2022/09/11 10:25:07;;;;;;;7.30;6.70;;;22.00;86.10;;;;;;5075568;28;20175;-48
2022/09/11 10:27:39;;;;;;;8.03;7.33;;;22.70;85.90;;;;;;5073883;28;20805;-47
2022/09/11 10:30:05;;;;;;;8.70;8.00;;;23.20;84.40;;;;;;5089916;28;20448;-43
2022/09/11 10:32:31;;;;;;;7.57;6.93;;;23.50;82.20;;;;;;5093635;28;20447;-45
2022/09/11 10:34:57;;;;;;;7.43;6.83;;;24.10;82.70;;;;;;5095019;28;20851;-47
2022/09/11 10:37:28;;;;;;;7.20;6.60;;;24.80;80.50;;;;;;5096533;28;20552;-46
2022/09/11 10:40:02;;;;;;;7.77;7.07;;;25.00;76.30;;;;;;5095643;28;20215;-48
2022/09/11 10:42:30;;;;;;;8.20;7.50;;;24.80;72.80;;;;;;5093639;28;20534;-44
2022/09/11 10:45:26;;;;;;;9.00;7.80;;;22.80;76.60;;;;;;5094663;28;20538;-49
2022/09/11 10:47:52;;;;;;;7.77;7.10;;;22.30;80.60;;;;;;5089946;28;20526;-44
2022/09/11 10:50:20;;;;;;;7.13;6.63;;;22.30;80.60;;;;;;5074829;28;20820;-44
2022/09/11 10:53:04;;;;;;;7.93;7.23;;;22.40;80.80;;;;;;5090417;28;20523;-45
2022/09/11 10:55:50;;;;;;;8.00;7.40;;;23.00;81.00;;;;;;5093777;28;20848;-45
2022/09/11 10:58:19;;;;;;;7.60;7.00;;;23.40;79.80;;;;;;5086999;28;20449;-46
2022/09/11 11:00:45;;;;;;;7.83;7.23;;;23.70;76.90;;;;;;5075914;28;20413;-46
2022/09/11 11:03:11;;;;;;;7.23;6.63;;;23.90;75.60;;;;;;5084724;28;20450;-45
2022/09/11 11:05:43;;;;;;;7.40;6.90;;;24.50;77.60;;;;;;5092807;28;20457;-44
2022/09/11 11:08:15;;;;;;;6.27;5.77;;;25.00;74.30;;;;;;5089752;28;20750;-45
2022/09/11 11:11:13;;;;;;;7.30;6.80;;;25.80;73.90;;;;;;5077317;28;20444;-44
2022/09/11 11:13:56;;;;;;;6.20;5.80;;;25.30;68.60;;;;;;5084082;28;20915;-44
2022/09/11 11:16:38;;;;;;;6.30;5.80;;;26.40;66.40;;;;;;5084482;28;20475;-45
2022/09/11 11:19:16;;;;;;;5.90;5.50;;;27.30;62.50;;;;;;5094152;28;20399;-47
2022/09/11 11:22:04;;;;;;;6.73;6.23;;;28.40;58.70;;;;;;5095690;28;20406;-47
2022/09/11 11:24:52;;;;;;;5.87;5.47;;;27.80;57.00;;;;;;5093606;28;20448;-46
2022/09/11 11:27:56;;;;;;;4.87;4.57;;;29.10;56.50;;;;;;5076149;28;20475;-46
2022/09/11 11:30:32;;;;;;;4.80;4.43;;;32.10;51.60;;;;;;5095239;28;20433;-45
2022/09/11 11:33:37;;;;;;;4.67;4.27;;;34.60;46.10;;;;;;5091658;28;20522;-47
2022/09/11 11:36:08;;;;;;;5.30;4.90;;;36.60;41.80;;;;;;5093530;28;20447;-45
2022/09/11 11:38:38;;;;;;;4.67;4.37;;;38.00;38.50;;;;;;5089061;28;20418;-43
2022/09/11 11:41:14;;;;;;;4.60;4.20;;;38.60;36.40;;;;;;5091429;28;20410;-44
2022/09/11 11:43:41;;;;;;;5.07;4.67;;;39.10;36.40;;;;;;5071770;28;21118;-47
2022/09/11 11:46:20;;;;;;;5.43;5.03;;;39.40;34.50;;;;;;5085941;28;20720;-45
2022/09/11 11:49:01;;;;;;;5.00;4.60;;;38.70;34.70;;;;;;5093599;28;20413;-48
2022/09/11 11:51:32;;;;;;;4.20;3.90;;;36.90;35.50;;;;;;5075343;28;20480;-52
2022/09/11 11:54:23;;;;;;;4.20;3.90;;;34.60;37.30;;;;;;5085741;28;20450;-44
2022/09/11 11:56:54;;;;;;;4.00;3.70;;;33.70;38.40;;;;;;5093286;28;20500;-48
2022/09/11 11:59:38;;;;;;;3.93;3.73;;;33.00;38.60;;;;;;5094200;28;20656;-51
2022/09/11 12:02:23;;;;;;;4.47;4.17;;;32.70;38.50;;;;;;5094624;28;20429;-50
2022/09/11 12:05:01;;;;;;;4.73;4.33;;;31.20;40.00;;;;;;5094839;28;20455;-46
2022/09/11 12:07:31;;;;;;;4.70;4.40;;;30.40;40.50;;;;;;5091431;28;20439;-48
2022/09/11 12:09:59;;;;;;;4.30;4.00;;;29.80;41.50;;;;;;5078682;28;20535;-44
2022/09/11 12:12:28;;;;;;;4.10;3.80;;;31.70;41.40;;;;;;5095742;28;20437;-48
2022/09/11 12:14:57;;;;;;;5.20;4.30;;;33.50;40.10;;;;;;5080555;28;20724;-48
2022/09/11 12:17:35;;;;;;;4.70;4.40;;;33.90;38.80;;;;;;5095806;28;20569;-49
2022/09/11 12:20:10;;;;;;;5.83;4.60;;;34.50;37.30;;;;;;5097044;28;20478;-45
2022/09/11 12:22:39;;;;;;;4.00;3.70;;;34.70;35.70;;;;;;5096193;28;20871;-45
2022/09/11 12:25:27;;;;;;;5.03;4.63;;;33.70;37.50;;;;;;5080262;28;20502;-46
2022/09/11 12:28:22;;;;;;;4.30;4.00;;;34.50;37.60;;;;;;5083856;28;20997;-45
2022/09/11 12:30:59;;;;;;;4.30;3.90;;;34.60;36.10;;;;;;5097802;28;20470;-47
2022/09/11 12:33:40;;;;;;;4.60;4.30;;;34.30;37.20;;;;;;5079330;28;20442;-47
2022/09/11 12:36:17;;;;;;;4.77;4.47;;;33.50;38.00;;;;;;5097498;28;20451;-49
2022/09/11 12:38:48;;;;;;;4.40;4.10;;;32.50;39.00;;;;;;5094736;28;20540;-47
2022/09/11 12:41:24;;;;;;;5.80;5.30;;;31.20;40.70;;;;;;5097711;28;20385;-47
2022/09/11 12:43:49;;;;;;;4.50;4.20;;;30.40;41.70;;;;;;5079102;28;20795;-47
2022/09/11 12:46:21;;;;;;;4.50;4.20;;;29.70;42.70;;;;;;5079615;28;20396;-48
2022/09/11 12:48:49;;;;;;;4.60;4.30;;;29.00;43.60;;;;;;5097363;28;20282;-48
2022/09/11 12:51:25;;;;;;;5.30;4.90;;;28.20;44.90;;;;;;5083002;28;20445;-45
2022/09/11 12:54:00;;;;;;;5.40;4.57;;;27.60;45.20;;;;;;5075188;28;20442;-44
2022/09/11 12:56:27;;;;;;;5.53;5.13;;;27.00;46.00;;;;;;5075364;28;21008;-48
2022/09/11 12:58:57;;;;;;;5.00;4.57;;;26.60;46.90;;;;;;5089699;28;20446;-45
2022/09/11 13:01:26;;;;;;;5.07;4.67;;;26.30;47.50;;;;;;5095444;28;20452;-43
2022/09/11 13:04:09;;;;;;;4.80;4.40;;;26.20;47.90;;;;;;5096285;28;20423;-47